To NAV CANADA Home Page Login to a new session Search on AWWS site Feedback and Comments Disclaimer Vers la page française équivalente Tips FAQ What's new on the site To the Forecasts and Observations / NOTAM section To "File a Flight Plan" website Publications and other links Update of the User's profile FIC Telephone Numbers My Weather Data Folder Route Weather Data Regional Weather Data Local Weather Data To the Forecasts and Observations / NOTAM section
Request Generated 04/19/2015 at 19:03:38 UTC . Weather information available at that time is displayed.

METAR/TAF

SAINT JOHN/NB    

METAR CYSJ 191900Z 20010KT 15SM SCT045 07/M02 A3018 RMK SC3 SLP223=
METAR CYSJ 191800Z 25006KT 190V310 15SM SCT040 07/M02 A3019 RMK SC3
SLP228=
METAR CYSJ 191700Z 27008KT 220V300 15SM BKN040 06/M02 A3020 RMK SC6
SLP230=

TAF CYSJ 191738Z 1918/2006 27008KT P6SM BKN040
FM192100 21012KT P6SM SKC
BECMG 1922/1924 21006KT
BECMG 2004/2006 36008KT
RMK NXT FCST BY 200000Z=
Your time UTC time
Weather data provided by Environment Canada and NAV CANADA